sensor_id;sensor_type;location;lat;lon;timestamp;temperature;humidity
19878;DHT22;10101;52.204;9.910;2024-02-26T00:02:16;1.00;51.50
19878;DHT22;10101;52.204;9.910;2024-02-26T00:04:43;1.10;98.10
19878;DHT22;10101;52.204;9.910;2024-02-26T00:07:10;1.00;94.50
19878;DHT22;10101;52.204;9.910;2024-02-26T00:09:36;1.00;99.90
19878;DHT22;10101;52.204;9.910;2024-02-26T00:12:04;1.10;99.90
19878;DHT22;10101;52.204;9.910;2024-02-26T00:14:30;1.00;94.70
19878;DHT22;10101;52.204;9.910;2024-02-26T00:16:57;1.10;35.90
19878;DHT22;10101;52.204;9.910;2024-02-26T00:19:25;1.10;25.00
19878;DHT22;10101;52.204;9.910;2024-02-26T00:21:52;1.10;45.00
19878;DHT22;10101;52.204;9.910;2024-02-26T00:24:21;1.00;1.00
19878;DHT22;10101;52.204;9.910;2024-02-26T00:26:47;1.00;1.00
19878;DHT22;10101;52.204;9.910;2024-02-26T00:29:18;1.10;30.20
19878;DHT22;10101;52.204;9.910;2024-02-26T00:31:45;1.00;1.00
19878;DHT22;10101;52.204;9.910;2024-02-26T00:34:11;1.00;1.00
19878;DHT22;10101;52.204;9.910;2024-02-26T00:36:39;1.10;15.30
19878;DHT22;10101;52.204;9.910;2024-02-26T00:39:06;1.00;13.20
19878;DHT22;10101;52.204;9.910;2024-02-26T00:41:33;1.00;1.10
19878;DHT22;10101;52.204;9.910;2024-02-26T00:44:04;0.70;65.30
19878;DHT22;10101;52.204;9.910;2024-02-26T00:46:30;1.00;26.60
19878;DHT22;10101;52.204;9.910;2024-02-26T00:48:57;1.00;67.20
19878;DHT22;10101;52.204;9.910;2024-02-26T00:51:24;1.00;99.90
19878;DHT22;10101;52.204;9.910;2024-02-26T00:53:52;1.00;99.90
19878;DHT22;10101;52.204;9.910;2024-02-26T00:56:19;1.00;99.90
19878;DHT22;10101;52.204;9.910;2024-02-26T00:58:45;0.90;99.90
19878;DHT22;10101;52.204;9.910;2024-02-26T01:01:12;0.90;99.90
19878;DHT22;10101;52.204;9.910;2024-02-26T01:03:39;0.90;99.90
19878;DHT22;10101;52.204;9.910;2024-02-26T01:06:06;0.90;1.00
19878;DHT22;10101;52.204;9.910;2024-02-26T01:08:32;0.90;1.00
19878;DHT22;10101;52.204;9.910;2024-02-26T01:11:02;1.00;1.00
19878;DHT22;10101;52.204;9.910;2024-02-26T01:13:29;0.90;1.00
19878;DHT22;10101;52.204;9.910;2024-02-26T01:15:56;1.00;1.00
19878;DHT22;10101;52.204;9.910;2024-02-26T01:18:23;1.00;1.00
19878;DHT22;10101;52.204;9.910;2024-02-26T01:20:50;1.00;1.00
19878;DHT22;10101;52.204;9.910;2024-02-26T01:23:16;1.10;1.00
19878;DHT22;10101;52.204;9.910;2024-02-26T01:25:43;1.00;1.00
19878;DHT22;10101;52.204;9.910;2024-02-26T01:28:11;1.00;1.00
19878;DHT22;10101;52.204;9.910;2024-02-26T01:30:38;1.00;1.00
19878;DHT22;10101;52.204;9.910;2024-02-26T01:33:04;0.90;1.00
19878;DHT22;10101;52.204;9.910;2024-02-26T01:35:31;0.90;1.00
19878;DHT22;10101;52.204;9.910;2024-02-26T01:37:58;1.00;1.00
19878;DHT22;10101;52.204;9.910;2024-02-26T01:40:26;1.00;1.00
19878;DHT22;10101;52.204;9.910;2024-02-26T01:42:53;1.00;1.00
19878;DHT22;10101;52.204;9.910;2024-02-26T01:45:21;1.00;1.00
19878;DHT22;10101;52.204;9.910;2024-02-26T01:47:51;1.00;1.00
19878;DHT22;10101;52.204;9.910;2024-02-26T01:50:18;0.90;1.00
19878;DHT22;10101;52.204;9.910;2024-02-26T01:52:45;1.00;1.00
19878;DHT22;10101;52.204;9.910;2024-02-26T01:55:13;1.00;1.00
19878;DHT22;10101;52.204;9.910;2024-02-26T01:57:41;1.10;1.00
19878;DHT22;10101;52.204;9.910;2024-02-26T02:00:09;1.10;1.00
19878;DHT22;10101;52.204;9.910;2024-02-26T02:02:38;1.10;1.00
19878;DHT22;10101;52.204;9.910;2024-02-26T02:05:08;1.10;1.00
19878;DHT22;10101;52.204;9.910;2024-02-26T02:07:35;1.00;1.00
19878;DHT22;10101;52.204;9.910;2024-02-26T02:10:02;1.00;1.00
19878;DHT22;10101;52.204;9.910;2024-02-26T02:12:30;1.10;55.90
19878;DHT22;10101;52.204;9.910;2024-02-26T02:14:58;1.20;99.90
19878;DHT22;10101;52.204;9.910;2024-02-26T02:17:25;1.30;99.90
19878;DHT22;10101;52.204;9.910;2024-02-26T02:19:53;1.30;99.90
19878;DHT22;10101;52.204;9.910;2024-02-26T02:22:21;1.20;93.30
19878;DHT22;10101;52.204;9.910;2024-02-26T02:24:49;1.20;99.90
19878;DHT22;10101;52.204;9.910;2024-02-26T02:27:15;1.10;99.90
19878;DHT22;10101;52.204;9.910;2024-02-26T02:29:42;1.10;99.90
19878;DHT22;10101;52.204;9.910;2024-02-26T02:32:09;1.20;99.90
19878;DHT22;10101;52.204;9.910;2024-02-26T02:34:37;1.10;99.90
19878;DHT22;10101;52.204;9.910;2024-02-26T02:37:03;1.10;99.90
19878;DHT22;10101;52.204;9.910;2024-02-26T02:39:31;1.10;99.90
19878;DHT22;10101;52.204;9.910;2024-02-26T02:41:58;1.00;99.90
19878;DHT22;10101;52.204;9.910;2024-02-26T02:44:25;1.00;99.90
19878;DHT22;10101;52.204;9.910;2024-02-26T02:46:52;0.90;99.90
19878;DHT22;10101;52.204;9.910;2024-02-26T02:49:18;1.00;99.90
19878;DHT22;10101;52.204;9.910;2024-02-26T02:51:45;1.00;99.90
19878;DHT22;10101;52.204;9.910;2024-02-26T02:54:12;0.90;99.90
19878;DHT22;10101;52.204;9.910;2024-02-26T02:56:40;0.80;99.90
19878;DHT22;10101;52.204;9.910;2024-02-26T02:59:07;0.80;99.90
19878;DHT22;10101;52.204;9.910;2024-02-26T03:01:33;0.80;99.90
19878;DHT22;10101;52.204;9.910;2024-02-26T03:04:00;0.80;99.90
19878;DHT22;10101;52.204;9.910;2024-02-26T03:06:27;0.90;99.90
19878;DHT22;10101;52.204;9.910;2024-02-26T03:08:54;0.80;99.90
19878;DHT22;10101;52.204;9.910;2024-02-26T03:11:21;0.80;99.90
19878;DHT22;10101;52.204;9.910;2024-02-26T03:13:49;0.90;99.90
19878;DHT22;10101;52.204;9.910;2024-02-26T03:16:17;0.90;99.90
19878;DHT22;10101;52.204;9.910;2024-02-26T03:18:44;0.80;99.90
19878;DHT22;10101;52.204;9.910;2024-02-26T03:21:10;0.90;99.90
19878;DHT22;10101;52.204;9.910;2024-02-26T03:23:37;0.90;99.90
19878;DHT22;10101;52.204;9.910;2024-02-26T03:26:04;0.90;99.90
19878;DHT22;10101;52.204;9.910;2024-02-26T03:28:31;0.90;1.00
19878;DHT22;10101;52.204;9.910;2024-02-26T03:31:00;0.90;1.00
19878;DHT22;10101;52.204;9.910;2024-02-26T03:33:27;0.90;1.00
19878;DHT22;10101;52.204;9.910;2024-02-26T03:35:54;0.90;1.00
19878;DHT22;10101;52.204;9.910;2024-02-26T03:38:21;0.90;1.00
19878;DHT22;10101;52.204;9.910;2024-02-26T03:40:47;0.90;1.00
19878;DHT22;10101;52.204;9.910;2024-02-26T03:43:14;1.00;1.00
19878;DHT22;10101;52.204;9.910;2024-02-26T03:45:41;1.00;1.00
19878;DHT22;10101;52.204;9.910;2024-02-26T03:48:09;1.00;1.00
19878;DHT22;10101;52.204;9.910;2024-02-26T03:50:36;1.10;1.00
19878;DHT22;10101;52.204;9.910;2024-02-26T03:53:03;1.10;69.20
19878;DHT22;10101;52.204;9.910;2024-02-26T03:55:29;1.10;99.90
19878;DHT22;10101;52.204;9.910;2024-02-26T03:57:56;1.10;99.90
19878;DHT22;10101;52.204;9.910;2024-02-26T04:00:23;1.10;99.90
19878;DHT22;10101;52.204;9.910;2024-02-26T04:02:50;1.20;1.00
19878;DHT22;10101;52.204;9.910;2024-02-26T04:05:21;1.40;1.00
19878;DHT22;10101;52.204;9.910;2024-02-26T04:07:48;1.50;1.00
19878;DHT22;10101;52.204;9.910;2024-02-26T04:10:14;1.70;1.00
19878;DHT22;10101;52.204;9.910;2024-02-26T04:12:42;1.60;1.00
19878;DHT22;10101;52.204;9.910;2024-02-26T04:15:09;1.60;1.00
19878;DHT22;10101;52.204;9.910;2024-02-26T04:17:37;1.70;1.00
19878;DHT22;10101;52.204;9.910;2024-02-26T04:20:05;1.70;1.00
19878;DHT22;10101;52.204;9.910;2024-02-26T04:22:33;1.70;1.00
19878;DHT22;10101;52.204;9.910;2024-02-26T04:25:00;1.70;1.00
19878;DHT22;10101;52.204;9.910;2024-02-26T04:27:27;1.70;25.10
19878;DHT22;10101;52.204;9.910;2024-02-26T04:29:53;1.70;37.60
19878;DHT22;10101;52.204;9.910;2024-02-26T04:32:20;1.70;23.40
19878;DHT22;10101;52.204;9.910;2024-02-26T04:34:47;1.80;48.50
19878;DHT22;10101;52.204;9.910;2024-02-26T04:37:14;1.80;61.40
19878;DHT22;10101;52.204;9.910;2024-02-26T04:39:42;1.80;74.20
19878;DHT22;10101;52.204;9.910;2024-02-26T04:42:08;1.70;4.50
19878;DHT22;10101;52.204;9.910;2024-02-26T04:44:35;1.70;1.00
19878;DHT22;10101;52.204;9.910;2024-02-26T04:47:02;1.80;1.00
19878;DHT22;10101;52.204;9.910;2024-02-26T04:49:29;1.80;2.10
19878;DHT22;10101;52.204;9.910;2024-02-26T04:51:55;1.80;1.00
19878;DHT22;10101;52.204;9.910;2024-02-26T04:54:23;1.80;1.00
19878;DHT22;10101;52.204;9.910;2024-02-26T04:56:51;1.70;1.00
19878;DHT22;10101;52.204;9.910;2024-02-26T04:59:17;1.80;5.70
19878;DHT22;10101;52.204;9.910;2024-02-26T05:01:44;1.80;50.40
19878;DHT22;10101;52.204;9.910;2024-02-26T05:04:11;1.80;44.60
19878;DHT22;10101;52.204;9.910;2024-02-26T05:06:38;1.80;39.20
19878;DHT22;10101;52.204;9.910;2024-02-26T05:09:04;1.80;80.20
19878;DHT22;10101;52.204;9.910;2024-02-26T05:11:31;1.90;99.90
19878;DHT22;10101;52.204;9.910;2024-02-26T05:13:59;2.00;99.90
19878;DHT22;10101;52.204;9.910;2024-02-26T05:16:26;2.10;99.90
19878;DHT22;10101;52.204;9.910;2024-02-26T05:18:55;2.20;99.90
19878;DHT22;10101;52.204;9.910;2024-02-26T05:21:22;2.30;99.90
19878;DHT22;10101;52.204;9.910;2024-02-26T05:23:49;2.30;99.90
19878;DHT22;10101;52.204;9.910;2024-02-26T05:26:19;2.30;99.90
19878;DHT22;10101;52.204;9.910;2024-02-26T05:28:47;2.40;30.60
19878;DHT22;10101;52.204;9.910;2024-02-26T05:31:15;2.40;1.00
19878;DHT22;10101;52.204;9.910;2024-02-26T05:33:42;2.50;1.00
19878;DHT22;10101;52.204;9.910;2024-02-26T05:36:08;2.50;1.00
19878;DHT22;10101;52.204;9.910;2024-02-26T05:38:35;2.50;1.00
19878;DHT22;10101;52.204;9.910;2024-02-26T05:41:02;2.50;1.00
19878;DHT22;10101;52.204;9.910;2024-02-26T05:43:30;2.50;99.90
19878;DHT22;10101;52.204;9.910;2024-02-26T05:45:57;2.50;99.90
19878;DHT22;10101;52.204;9.910;2024-02-26T05:48:25;2.50;99.90
19878;DHT22;10101;52.204;9.910;2024-02-26T05:50:51;2.50;99.90
19878;DHT22;10101;52.204;9.910;2024-02-26T05:53:18;2.50;99.90
19878;DHT22;10101;52.204;9.910;2024-02-26T05:55:45;2.60;99.90
19878;DHT22;10101;52.204;9.910;2024-02-26T05:58:11;2.60;29.30
19878;DHT22;10101;52.204;9.910;2024-02-26T06:00:39;2.60;1.00
19878;DHT22;10101;52.204;9.910;2024-02-26T06:03:06;2.60;1.00
19878;DHT22;10101;52.204;9.910;2024-02-26T06:05:34;2.70;1.00
19878;DHT22;10101;52.204;9.910;2024-02-26T06:08:01;2.70;1.00
19878;DHT22;10101;52.204;9.910;2024-02-26T06:10:28;2.70;1.00
19878;DHT22;10101;52.204;9.910;2024-02-26T06:12:55;2.70;1.00
19878;DHT22;10101;52.204;9.910;2024-02-26T06:15:21;2.70;1.00
19878;DHT22;10101;52.204;9.910;2024-02-26T06:17:48;2.70;99.90
19878;DHT22;10101;52.204;9.910;2024-02-26T06:20:15;2.70;99.90
19878;DHT22;10101;52.204;9.910;2024-02-26T06:22:44;2.70;99.90
19878;DHT22;10101;52.204;9.910;2024-02-26T06:25:10;2.70;99.90
19878;DHT22;10101;52.204;9.910;2024-02-26T06:27:37;2.70;99.90
19878;DHT22;10101;52.204;9.910;2024-02-26T06:30:05;2.80;99.90
19878;DHT22;10101;52.204;9.910;2024-02-26T06:32:31;2.80;99.90
19878;DHT22;10101;52.204;9.910;2024-02-26T06:34:58;2.80;99.90
19878;DHT22;10101;52.204;9.910;2024-02-26T06:37:25;2.90;99.90
19878;DHT22;10101;52.204;9.910;2024-02-26T06:39:53;2.80;99.90
19878;DHT22;10101;52.204;9.910;2024-02-26T06:42:20;2.80;66.60
19878;DHT22;10101;52.204;9.910;2024-02-26T06:44:46;2.90;73.20
19878;DHT22;10101;52.204;9.910;2024-02-26T06:47:13;2.90;57.10
19878;DHT22;10101;52.204;9.910;2024-02-26T06:49:40;2.90;69.70
19878;DHT22;10101;52.204;9.910;2024-02-26T06:52:07;3.00;79.70
19878;DHT22;10101;52.204;9.910;2024-02-26T06:54:34;3.00;61.80
19878;DHT22;10101;52.204;9.910;2024-02-26T06:57:02;3.00;90.60
19878;DHT22;10101;52.204;9.910;2024-02-26T06:59:29;3.00;98.90
19878;DHT22;10101;52.204;9.910;2024-02-26T07:01:56;3.10;99.90
19878;DHT22;10101;52.204;9.910;2024-02-26T07:04:22;3.10;86.00
19878;DHT22;10101;52.204;9.910;2024-02-26T07:06:49;3.10;32.40
19878;DHT22;10101;52.204;9.910;2024-02-26T07:09:16;3.20;1.00
19878;DHT22;10101;52.204;9.910;2024-02-26T07:11:42;3.20;1.00
19878;DHT22;10101;52.204;9.910;2024-02-26T07:14:12;3.20;1.00
19878;DHT22;10101;52.204;9.910;2024-02-26T07:16:39;3.30;1.00
19878;DHT22;10101;52.204;9.910;2024-02-26T07:19:05;3.40;1.00
19878;DHT22;10101;52.204;9.910;2024-02-26T07:21:32;3.40;1.00
19878;DHT22;10101;52.204;9.910;2024-02-26T07:23:59;3.50;1.00
19878;DHT22;10101;52.204;9.910;2024-02-26T07:26:26;3.60;1.00
19878;DHT22;10101;52.204;9.910;2024-02-26T07:28:55;3.60;1.00
19878;DHT22;10101;52.204;9.910;2024-02-26T07:31:23;3.70;1.00
19878;DHT22;10101;52.204;9.910;2024-02-26T07:33:50;3.70;1.00
19878;DHT22;10101;52.204;9.910;2024-02-26T07:36:16;3.70;1.00
19878;DHT22;10101;52.204;9.910;2024-02-26T07:38:43;3.70;99.90
19878;DHT22;10101;52.204;9.910;2024-02-26T07:41:11;3.80;99.90
19878;DHT22;10101;52.204;9.910;2024-02-26T07:43:38;3.80;99.90
19878;DHT22;10101;52.204;9.910;2024-02-26T07:46:04;3.90;99.90
19878;DHT22;10101;52.204;9.910;2024-02-26T07:48:32;4.00;99.90
19878;DHT22;10101;52.204;9.910;2024-02-26T07:50:59;4.10;99.90
19878;DHT22;10101;52.204;9.910;2024-02-26T07:53:28;4.10;1.00
19878;DHT22;10101;52.204;9.910;2024-02-26T07:55:55;4.10;1.00
19878;DHT22;10101;52.204;9.910;2024-02-26T07:58:23;4.10;1.00
19878;DHT22;10101;52.204;9.910;2024-02-26T08:00:50;4.20;1.00
19878;DHT22;10101;52.204;9.910;2024-02-26T08:03:17;4.20;1.00
19878;DHT22;10101;52.204;9.910;2024-02-26T08:05:45;4.30;1.00
19878;DHT22;10101;52.204;9.910;2024-02-26T08:08:11;4.30;1.00
19878;DHT22;10101;52.204;9.910;2024-02-26T08:10:38;4.30;99.90
19878;DHT22;10101;52.204;9.910;2024-02-26T08:13:05;4.40;99.90
19878;DHT22;10101;52.204;9.910;2024-02-26T08:15:32;4.40;99.90
19878;DHT22;10101;52.204;9.910;2024-02-26T08:17:59;4.40;99.90
19878;DHT22;10101;52.204;9.910;2024-02-26T08:20:27;4.40;99.90
19878;DHT22;10101;52.204;9.910;2024-02-26T08:22:55;4.50;99.90
19878;DHT22;10101;52.204;9.910;2024-02-26T08:25:22;4.60;47.80
19878;DHT22;10101;52.204;9.910;2024-02-26T08:27:49;4.60;46.40
19878;DHT22;10101;52.204;9.910;2024-02-26T08:30:16;4.70;1.00
19878;DHT22;10101;52.204;9.910;2024-02-26T08:32:43;4.70;1.00
19878;DHT22;10101;52.204;9.910;2024-02-26T08:35:10;4.70;1.00
19878;DHT22;10101;52.204;9.910;2024-02-26T08:37:37;4.90;1.00
19878;DHT22;10101;52.204;9.910;2024-02-26T08:40:06;4.90;1.00
19878;DHT22;10101;52.204;9.910;2024-02-26T08:42:33;4.80;1.00
19878;DHT22;10101;52.204;9.910;2024-02-26T08:45:01;4.90;1.00
19878;DHT22;10101;52.204;9.910;2024-02-26T08:47:28;4.90;1.00
19878;DHT22;10101;52.204;9.910;2024-02-26T08:49:55;5.00;1.00
19878;DHT22;10101;52.204;9.910;2024-02-26T08:52:22;5.00;1.00
19878;DHT22;10101;52.204;9.910;2024-02-26T08:54:49;5.10;1.00
19878;DHT22;10101;52.204;9.910;2024-02-26T08:57:17;5.10;1.00
19878;DHT22;10101;52.204;9.910;2024-02-26T08:59:44;5.30;99.90
19878;DHT22;10101;52.204;9.910;2024-02-26T09:02:11;5.30;99.90
19878;DHT22;10101;52.204;9.910;2024-02-26T09:04:37;5.00;91.50
19878;DHT22;10101;52.204;9.910;2024-02-26T09:07:04;5.40;1.00
19878;DHT22;10101;52.204;9.910;2024-02-26T09:09:31;5.60;1.00
19878;DHT22;10101;52.204;9.910;2024-02-26T09:11:58;5.80;1.00
19878;DHT22;10101;52.204;9.910;2024-02-26T09:14:26;5.80;29.30
19878;DHT22;10101;52.204;9.910;2024-02-26T09:16:53;5.80;1.00
19878;DHT22;10101;52.204;9.910;2024-02-26T09:19:20;6.00;1.00
19878;DHT22;10101;52.204;9.910;2024-02-26T09:21:46;6.10;1.00
19878;DHT22;10101;52.204;9.910;2024-02-26T09:24:13;6.10;1.00
19878;DHT22;10101;52.204;9.910;2024-02-26T09:26:40;6.20;1.00
19878;DHT22;10101;52.204;9.910;2024-02-26T09:29:07;6.30;1.00
19878;DHT22;10101;52.204;9.910;2024-02-26T09:31:35;6.20;1.00
19878;DHT22;10101;52.204;9.910;2024-02-26T09:34:02;6.20;99.90
19878;DHT22;10101;52.204;9.910;2024-02-26T09:36:29;6.20;99.90
19878;DHT22;10101;52.204;9.910;2024-02-26T09:38:56;6.20;99.90
19878;DHT22;10101;52.204;9.910;2024-02-26T09:41:23;6.40;99.90
19878;DHT22;10101;52.204;9.910;2024-02-26T09:43:52;6.50;99.90
19878;DHT22;10101;52.204;9.910;2024-02-26T09:46:22;6.60;99.90
19878;DHT22;10101;52.204;9.910;2024-02-26T09:48:51;6.80;99.90
19878;DHT22;10101;52.204;9.910;2024-02-26T09:51:18;6.60;1.00
19878;DHT22;10101;52.204;9.910;2024-02-26T09:53:47;6.50;1.00
19878;DHT22;10101;52.204;9.910;2024-02-26T09:56:18;6.50;1.00
19878;DHT22;10101;52.204;9.910;2024-02-26T09:58:46;6.40;1.00
19878;DHT22;10101;52.204;9.910;2024-02-26T10:01:18;6.50;1.00
19878;DHT22;10101;52.204;9.910;2024-02-26T10:03:51;6.80;1.00
19878;DHT22;10101;52.204;9.910;2024-02-26T10:06:20;7.10;1.00
19878;DHT22;10101;52.204;9.910;2024-02-26T10:08:47;7.20;1.00
19878;DHT22;10101;52.204;9.910;2024-02-26T10:11:15;7.10;1.00
19878;DHT22;10101;52.204;9.910;2024-02-26T10:13:43;7.00;1.00
19878;DHT22;10101;52.204;9.910;2024-02-26T10:16:10;6.90;1.00
19878;DHT22;10101;52.204;9.910;2024-02-26T10:18:47;7.10;1.00
19878;DHT22;10101;52.204;9.910;2024-02-26T10:21:16;7.10;1.00
19878;DHT22;10101;52.204;9.910;2024-02-26T10:23:44;7.20;1.00
19878;DHT22;10101;52.204;9.910;2024-02-26T10:26:12;7.30;99.90
19878;DHT22;10101;52.204;9.910;2024-02-26T10:28:39;7.40;99.90
19878;DHT22;10101;52.204;9.910;2024-02-26T10:31:06;7.30;99.90
19878;DHT22;10101;52.204;9.910;2024-02-26T10:33:33;7.30;99.90
19878;DHT22;10101;52.204;9.910;2024-02-26T10:36:01;7.30;99.90
19878;DHT22;10101;52.204;9.910;2024-02-26T10:38:27;7.10;99.90
19878;DHT22;10101;52.204;9.910;2024-02-26T10:40:56;7.20;99.90
19878;DHT22;10101;52.204;9.910;2024-02-26T10:43:22;7.40;99.90
19878;DHT22;10101;52.204;9.910;2024-02-26T10:45:49;7.20;99.90
19878;DHT22;10101;52.204;9.910;2024-02-26T10:48:16;7.30;99.90
19878;DHT22;10101;52.204;9.910;2024-02-26T10:50:44;7.10;99.90
19878;DHT22;10101;52.204;9.910;2024-02-26T10:53:15;7.20;99.90
19878;DHT22;10101;52.204;9.910;2024-02-26T10:55:43;7.40;99.90
19878;DHT22;10101;52.204;9.910;2024-02-26T10:58:14;7.30;99.90
19878;DHT22;10101;52.204;9.910;2024-02-26T11:00:43;7.30;99.90
19878;DHT22;10101;52.204;9.910;2024-02-26T11:03:11;7.40;99.90
19878;DHT22;10101;52.204;9.910;2024-02-26T11:05:39;7.30;99.90
19878;DHT22;10101;52.204;9.910;2024-02-26T11:08:06;7.60;89.80
19878;DHT22;10101;52.204;9.910;2024-02-26T11:10:33;7.60;72.80
19878;DHT22;10101;52.204;9.910;2024-02-26T11:13:01;7.60;1.00
19878;DHT22;10101;52.204;9.910;2024-02-26T11:15:30;7.80;8.40
19878;DHT22;10101;52.204;9.910;2024-02-26T11:18:00;7.90;99.90
19878;DHT22;10101;52.204;9.910;2024-02-26T11:20:28;8.00;99.90
19878;DHT22;10101;52.204;9.910;2024-02-26T11:22:55;8.00;99.90
19878;DHT22;10101;52.204;9.910;2024-02-26T11:25:22;8.30;99.90
19878;DHT22;10101;52.204;9.910;2024-02-26T11:27:51;8.20;62.90
19878;DHT22;10101;52.204;9.910;2024-02-26T11:30:21;8.30;99.90
19878;DHT22;10101;52.204;9.910;2024-02-26T11:32:50;8.50;99.90
19878;DHT22;10101;52.204;9.910;2024-02-26T11:35:17;8.40;99.90
19878;DHT22;10101;52.204;9.910;2024-02-26T11:37:52;8.40;24.00
19878;DHT22;10101;52.204;9.910;2024-02-26T11:40:20;8.50;89.60
19878;DHT22;10101;52.204;9.910;2024-02-26T11:42:47;8.50;99.90
19878;DHT22;10101;52.204;9.910;2024-02-26T11:45:49;8.40;65.10
19878;DHT22;10101;52.204;9.910;2024-02-26T11:48:22;8.20;21.40
19878;DHT22;10101;52.204;9.910;2024-02-26T11:50:50;8.40;1.00
19878;DHT22;10101;52.204;9.910;2024-02-26T11:53:23;8.30;1.00
19878;DHT22;10101;52.204;9.910;2024-02-26T11:56:20;8.30;1.00
19878;DHT22;10101;52.204;9.910;2024-02-26T11:58:47;8.30;1.00
19878;DHT22;10101;52.204;9.910;2024-02-26T12:01:43;8.30;1.00
19878;DHT22;10101;52.204;9.910;2024-02-26T12:04:17;8.30;1.00
19878;DHT22;10101;52.204;9.910;2024-02-26T12:06:47;8.20;1.00
19878;DHT22;10101;52.204;9.910;2024-02-26T12:09:35;8.00;1.00
19878;DHT22;10101;52.204;9.910;2024-02-26T12:12:03;8.20;1.00
19878;DHT22;10101;52.204;9.910;2024-02-26T12:14:33;8.20;1.00
19878;DHT22;10101;52.204;9.910;2024-02-26T12:17:00;8.40;1.00
19878;DHT22;10101;52.204;9.910;2024-02-26T12:19:30;8.60;1.00
19878;DHT22;10101;52.204;9.910;2024-02-26T12:21:58;8.80;1.00
19878;DHT22;10101;52.204;9.910;2024-02-26T12:24:24;8.90;1.00
19878;DHT22;10101;52.204;9.910;2024-02-26T12:26:51;9.00;1.00
19878;DHT22;10101;52.204;9.910;2024-02-26T12:29:18;9.00;1.00
19878;DHT22;10101;52.204;9.910;2024-02-26T12:31:45;9.10;1.00
19878;DHT22;10101;52.204;9.910;2024-02-26T12:34:12;9.20;1.00
19878;DHT22;10101;52.204;9.910;2024-02-26T12:36:40;9.00;1.00
19878;DHT22;10101;52.204;9.910;2024-02-26T12:39:07;9.30;1.00
19878;DHT22;10101;52.204;9.910;2024-02-26T12:41:35;9.30;1.00
19878;DHT22;10101;52.204;9.910;2024-02-26T12:44:02;9.40;1.00
19878;DHT22;10101;52.204;9.910;2024-02-26T12:46:28;9.30;1.00
19878;DHT22;10101;52.204;9.910;2024-02-26T12:48:56;9.30;1.00
19878;DHT22;10101;52.204;9.910;2024-02-26T12:51:25;9.20;1.00
19878;DHT22;10101;52.204;9.910;2024-02-26T12:53:54;9.10;1.00
19878;DHT22;10101;52.204;9.910;2024-02-26T12:56:22;9.30;1.00
19878;DHT22;10101;52.204;9.910;2024-02-26T12:58:50;9.40;1.00
19878;DHT22;10101;52.204;9.910;2024-02-26T13:01:19;9.50;1.00
19878;DHT22;10101;52.204;9.910;2024-02-26T13:03:49;9.50;1.00
19878;DHT22;10101;52.204;9.910;2024-02-26T13:06:16;9.60;1.00
19878;DHT22;10101;52.204;9.910;2024-02-26T13:08:43;9.50;1.00
19878;DHT22;10101;52.204;9.910;2024-02-26T13:11:12;9.60;1.00
19878;DHT22;10101;52.204;9.910;2024-02-26T13:13:38;9.30;1.00
19878;DHT22;10101;52.204;9.910;2024-02-26T13:16:07;9.50;1.00
19878;DHT22;10101;52.204;9.910;2024-02-26T13:18:34;9.60;1.00
19878;DHT22;10101;52.204;9.910;2024-02-26T13:21:12;9.70;1.00
19878;DHT22;10101;52.204;9.910;2024-02-26T13:23:41;9.60;1.00
19878;DHT22;10101;52.204;9.910;2024-02-26T13:26:09;9.70;1.00
19878;DHT22;10101;52.204;9.910;2024-02-26T13:28:39;9.80;1.00
19878;DHT22;10101;52.204;9.910;2024-02-26T13:31:06;9.80;1.00
19878;DHT22;10101;52.204;9.910;2024-02-26T13:33:33;9.70;1.00
19878;DHT22;10101;52.204;9.910;2024-02-26T13:36:00;9.90;1.00
19878;DHT22;10101;52.204;9.910;2024-02-26T13:38:28;9.70;1.00
19878;DHT22;10101;52.204;9.910;2024-02-26T13:40:55;9.60;1.00
19878;DHT22;10101;52.204;9.910;2024-02-26T13:43:21;9.50;1.00
19878;DHT22;10101;52.204;9.910;2024-02-26T13:45:49;9.40;1.00
19878;DHT22;10101;52.204;9.910;2024-02-26T13:48:16;9.30;1.00
19878;DHT22;10101;52.204;9.910;2024-02-26T13:50:43;9.30;1.00
19878;DHT22;10101;52.204;9.910;2024-02-26T13:53:10;9.20;1.00
19878;DHT22;10101;52.204;9.910;2024-02-26T13:55:38;9.00;1.00
19878;DHT22;10101;52.204;9.910;2024-02-26T13:58:07;9.00;1.00
19878;DHT22;10101;52.204;9.910;2024-02-26T14:00:35;9.00;1.00
19878;DHT22;10101;52.204;9.910;2024-02-26T14:03:03;9.00;1.00
19878;DHT22;10101;52.204;9.910;2024-02-26T14:05:30;8.80;1.00
19878;DHT22;10101;52.204;9.910;2024-02-26T14:07:56;9.00;1.00
19878;DHT22;10101;52.204;9.910;2024-02-26T14:10:23;8.90;1.00
19878;DHT22;10101;52.204;9.910;2024-02-26T14:12:50;9.00;1.00
19878;DHT22;10101;52.204;9.910;2024-02-26T14:15:17;9.00;1.00
19878;DHT22;10101;52.204;9.910;2024-02-26T14:17:44;8.80;1.00
19878;DHT22;10101;52.204;9.910;2024-02-26T14:20:12;8.70;1.00
19878;DHT22;10101;52.204;9.910;2024-02-26T14:22:39;8.60;1.00
19878;DHT22;10101;52.204;9.910;2024-02-26T14:25:06;8.70;1.00
19878;DHT22;10101;52.204;9.910;2024-02-26T14:27:34;8.70;1.00
19878;DHT22;10101;52.204;9.910;2024-02-26T14:30:01;8.80;1.00
19878;DHT22;10101;52.204;9.910;2024-02-26T14:32:28;8.70;1.00
19878;DHT22;10101;52.204;9.910;2024-02-26T14:34:56;8.70;1.00
19878;DHT22;10101;52.204;9.910;2024-02-26T14:37:24;8.50;1.00
19878;DHT22;10101;52.204;9.910;2024-02-26T14:39:53;8.50;1.00
19878;DHT22;10101;52.204;9.910;2024-02-26T14:42:20;8.50;1.00
19878;DHT22;10101;52.204;9.910;2024-02-26T14:44:46;8.50;1.00
19878;DHT22;10101;52.204;9.910;2024-02-26T14:47:13;8.40;1.00
19878;DHT22;10101;52.204;9.910;2024-02-26T14:49:40;8.50;1.00
19878;DHT22;10101;52.204;9.910;2024-02-26T14:52:07;8.40;1.00
19878;DHT22;10101;52.204;9.910;2024-02-26T14:54:35;8.30;1.00
19878;DHT22;10101;52.204;9.910;2024-02-26T14:57:04;8.40;1.00
19878;DHT22;10101;52.204;9.910;2024-02-26T14:59:32;8.40;1.00
19878;DHT22;10101;52.204;9.910;2024-02-26T15:01:59;8.30;1.00
19878;DHT22;10101;52.204;9.910;2024-02-26T15:04:26;8.30;1.00
19878;DHT22;10101;52.204;9.910;2024-02-26T15:06:53;8.30;1.00
19878;DHT22;10101;52.204;9.910;2024-02-26T15:09:19;8.20;1.00
19878;DHT22;10101;52.204;9.910;2024-02-26T15:11:48;8.30;1.00
19878;DHT22;10101;52.204;9.910;2024-02-26T15:14:14;8.30;1.00
19878;DHT22;10101;52.204;9.910;2024-02-26T15:16:41;8.20;1.00
19878;DHT22;10101;52.204;9.910;2024-02-26T15:19:08;8.30;1.00
19878;DHT22;10101;52.204;9.910;2024-02-26T15:21:41;8.30;1.00
19878;DHT22;10101;52.204;9.910;2024-02-26T15:24:08;8.30;1.00
19878;DHT22;10101;52.204;9.910;2024-02-26T15:26:36;8.30;1.00
19878;DHT22;10101;52.204;9.910;2024-02-26T15:29:04;8.30;1.00
19878;DHT22;10101;52.204;9.910;2024-02-26T15:31:31;8.20;1.00
19878;DHT22;10101;52.204;9.910;2024-02-26T15:33:57;8.20;1.00
19878;DHT22;10101;52.204;9.910;2024-02-26T15:36:24;8.20;1.00
19878;DHT22;10101;52.204;9.910;2024-02-26T15:38:51;8.20;1.00
19878;DHT22;10101;52.204;9.910;2024-02-26T15:41:19;8.00;1.00
19878;DHT22;10101;52.204;9.910;2024-02-26T15:43:45;8.00;1.00
19878;DHT22;10101;52.204;9.910;2024-02-26T15:46:13;7.90;1.00
19878;DHT22;10101;52.204;9.910;2024-02-26T15:48:40;7.90;1.00
19878;DHT22;10101;52.204;9.910;2024-02-26T15:51:07;7.90;1.00
19878;DHT22;10101;52.204;9.910;2024-02-26T15:53:33;7.90;1.00
19878;DHT22;10101;52.204;9.910;2024-02-26T15:56:00;7.90;1.00
19878;DHT22;10101;52.204;9.910;2024-02-26T15:58:27;7.90;1.00